Hlavní strana
METAR-TAF:

METAR-TAF

Letiště :

Washington, Indiana, Spojené státy americké

zeměpisná šířka: 38-42-02N, zeměpisná délka: 087-07-47W, výška: 144 m

Aktuální stav počasí

Zpráva byla vytvořena před 28 minutami, v 09:55 UTC
Severozápadní vítr 12 kt s nárazy do 21 kt
Teplota -2°C
Vlhkost vzduchu 69%
Tlak 1018 hPa
Viditelnost: 16.1 km
Polojasno ve výšce 2400 ft

METAR: KDCY 100955Z AUTO 31012G21KT 10SM SCT024 M02/M07 A3007 RMK AO2 T10241067

Čas: 05:23 (10:23 UTC)


TAF: chybějící

Stav a předpovědi počasí z více než 4 000 letišť (zprávy METAR a TAF).

Červené a žluté tečky na mapě představují dostupné meteorologické stanice.

Když kurzor umístíte na tečku, zobrazí se název stanice.

Pak kliknutím zobrazíte stav a předpověď počasí.

Chcete-li změnit mapu, kliknutím na zelené tlačítko se znaménkem +mapu přiblížíte, kliknutím na zelené tlačítko se znaménkem – mapu oddálíte a kliknutím na zelené šipky přejdete na sousední mapy.


METAR-TAF: